Plymouth, MA

3:01 AM EDT on May 30, 2015 (GMT -0400)
Manomet | | Change Station
CLOSE
Current Station
Personal Weather Station
Location: manomet, MA
Elevation: 62 ft
Nearby Weather Stations

Elev 62 ft 41.91 °N, 70.56 °W | Updated 34 minutes ago

Fog
Fog
73.8 °F
Feels Like 77 °F
N
0.7
Wind Variable Wind from SE
Gusts 3.1 mph

Today
High -- | Low -- °F
--% Chance of Precip.
Yesterday
High -- | Low -- °F
Precip. -- in
5:10 AM 8:09 PM
Waxing Gibbous, 88% visible
Pressure 30.22 in
Visibility 0.5 miles
Clouds
Heat Index 77 °F
Dew Point 57.1 °F
Humidity 56%
Rainfall 0.00 in
Snow Depth Not available.
UV Not available.
Pollen 8.40 out of 12
Air Quality Not available.
Flu Activity Local Activity
METAR KPYM 300652Z AUTO 20004KT 1/2SM FG VV002 16/16 A3021 RMK AO2 SLP231 T01560156

More Conditions Fewer Conditions

Pressure 30.22 in
Visibility 0.5 miles
Clouds
Heat Index 77 °F
Dew Point 57.1 °F
Humidity 56%
Rainfall 0.00 in
Snow Depth Not available.
UV Not available.
Pollen 8.40 out of 12
Air Quality Not available.
Flu Activity Local Activity
METAR KPYM 300652Z AUTO 20004KT 1/2SM FG VV002 16/16 A3021 RMK AO2 SLP231 T01560156

More Conditions Fewer Conditions

10-Day Weather Forecast

Almanac

Astronomy

May. 30, 2015 Rise Set
Actual Time
Civil Twilight
Nautical Twilight
Astronomical Twilight
Moon
Length of Visible Light
Length of Day
Tomorrow will be .
, % of the Moon is Illuminated

Today's Extremes

State Highs State Lows

Community

WunderPhotos

Upload Photos

1,825,470 photos uploaded!

WunderBlogs® & News

Nearby

Air Quality

  Air Quality AQ Index Pollutant
Not available.

Snow Depth

Station Depth Elevation

Earthquake Activity

City Distance Mag. Time & Date
Minimum magnitude displayed is 2.5.

Coastal Water Temperatures

Place Temperature

Stations

Nearby Weather Stations

Station Location Temp. Windchill Dew Point Humidity Wind Precip. Elev Updated Type